createdAt,value
2022-12-25T12:31:13.069Z,0.73
2022-12-25T12:33:49.812Z,0.82
2022-12-25T12:36:24.997Z,1.58
2022-12-25T12:38:58.035Z,1.23
2022-12-25T12:41:27.405Z,1.17
2022-12-25T12:43:58.929Z,1.85
2022-12-25T12:46:34.166Z,1.17
2022-12-25T12:49:20.952Z,1.33
2022-12-25T12:51:48.410Z,0.98
2022-12-25T12:54:21.937Z,1.17
2022-12-25T12:57:15.855Z,1.23
2022-12-25T12:59:46.221Z,1.92
2022-12-25T13:02:13.651Z,1.88
2022-12-25T13:04:44.265Z,2.33
2022-12-25T13:07:44.200Z,1.23
2022-12-25T13:10:11.604Z,2.30
2022-12-25T13:12:38.969Z,1.30
2022-12-25T13:15:14.086Z,1.85
2022-12-25T13:17:44.460Z,1.33
2022-12-25T13:20:35.161Z,1.20
2022-12-25T13:23:02.620Z,1.73
2022-12-25T13:25:30.004Z,1.35
2022-12-25T13:27:59.648Z,1.20
2022-12-25T13:30:27.287Z,0.75
2022-12-25T13:32:54.942Z,2.10
2022-12-25T13:35:23.493Z,2.40
2022-12-25T13:37:51.176Z,1.55
2022-12-25T13:40:24.415Z,1.40
2022-12-25T13:42:53.335Z,1.40
2022-12-25T13:45:23.836Z,1.83
2022-12-25T13:47:55.542Z,1.92
2022-12-25T13:50:28.613Z,1.38
2022-12-25T13:53:09.923Z,0.88
2022-12-25T13:55:37.595Z,1.65
2022-12-25T13:58:06.657Z,1.52
2022-12-25T14:03:07.656Z,1.52
2022-12-25T14:05:42.397Z,1.75
2022-12-25T14:08:23.188Z,2.28
2022-12-25T14:10:51.529Z,2.53
2022-12-25T14:13:20.905Z,2.03
2022-12-25T14:15:49.608Z,3.38
2022-12-25T14:18:18.176Z,1.35
2022-12-25T14:21:14.873Z,2.30
2022-12-25T14:23:45.036Z,2.08
2022-12-25T14:26:22.268Z,1.15
2022-12-25T14:28:54.482Z,1.48
2022-12-25T14:31:23.750Z,2.22
2022-12-25T14:33:52.370Z,1.88
2022-12-25T14:36:19.872Z,1.00
2022-12-25T14:38:57.866Z,1.65
2022-12-25T14:41:37.831Z,1.13
2022-12-25T14:44:31.675Z,1.35
2022-12-25T14:47:12.050Z,2.42
2022-12-25T14:49:40.120Z,2.15
2022-12-25T14:52:16.355Z,1.92
2022-12-25T14:54:50.280Z,1.45
2022-12-25T14:57:29.653Z,1.42
2022-12-25T15:00:01.961Z,1.88
2022-12-25T15:02:50.320Z,1.65
2022-12-25T15:05:44.634Z,1.88
2022-12-25T15:08:13.962Z,1.48
2022-12-25T15:11:01.284Z,1.15
2022-12-25T15:13:30.892Z,1.70
2022-12-25T15:16:05.500Z,0.63
2022-12-25T15:18:37.730Z,1.20
2022-12-25T15:21:06.683Z,1.50
2022-12-25T15:23:35.158Z,1.63
2022-12-25T15:26:04.210Z,1.60
2022-12-25T15:31:00.571Z,0.90
2022-12-25T15:33:28.210Z,1.45
2022-12-25T15:35:57.355Z,1.65
2022-12-25T15:38:24.764Z,1.63
2022-12-25T15:40:52.452Z,1.33
2022-12-25T15:43:40.462Z,1.05
2022-12-25T15:46:07.124Z,1.33
2022-12-25T15:48:34.469Z,1.98
2022-12-25T15:51:01.893Z,1.60
2022-12-25T15:53:29.319Z,1.13
2022-12-25T15:55:56.692Z,1.55
2022-12-25T15:58:24.099Z,0.82
2022-12-25T16:00:51.643Z,1.33
2022-12-25T16:03:19.103Z,1.30
2022-12-25T16:05:46.517Z,1.17
2022-12-25T16:08:13.916Z,1.13
2022-12-25T16:10:41.361Z,1.88
2022-12-25T16:13:08.742Z,1.85
2022-12-25T16:15:36.194Z,1.55
2022-12-25T16:18:03.839Z,1.50
2022-12-25T16:20:31.251Z,1.00
2022-12-25T16:22:58.598Z,2.35
2022-12-25T16:25:26.006Z,1.33
2022-12-25T16:27:53.402Z,1.70
2022-12-25T16:30:21.026Z,1.80
2022-12-25T16:32:50.581Z,1.75
2022-12-25T16:35:18.195Z,1.67
2022-12-25T16:37:45.563Z,1.40
2022-12-25T16:40:13.051Z,1.40
2022-12-25T16:42:40.617Z,1.45
2022-12-25T16:45:08.152Z,1.52
2022-12-25T16:47:35.579Z,1.48
2022-12-25T16:50:03.899Z,1.92
2022-12-25T16:52:32.900Z,0.95
2022-12-25T16:55:00.366Z,2.20
2022-12-25T16:57:28.520Z,1.73
2022-12-25T16:59:56.003Z,1.27
2022-12-25T17:02:23.666Z,1.20
2022-12-25T17:04:51.356Z,1.45
2022-12-25T17:07:19.184Z,2.28
2022-12-25T17:09:49.976Z,1.48
2022-12-25T17:12:17.674Z,1.27
2022-12-25T17:14:45.071Z,2.28
2022-12-25T17:17:12.491Z,2.13
2022-12-25T17:19:39.909Z,1.80
2022-12-25T17:22:07.565Z,2.25
2022-12-25T17:24:37.464Z,1.75
2022-12-25T17:27:08.759Z,1.45
2022-12-25T17:29:36.812Z,1.35
2022-12-25T17:32:04.177Z,2.45
2022-12-25T17:34:31.575Z,1.15
2022-12-25T17:36:59.170Z,2.22
2022-12-25T17:39:26.732Z,1.88
2022-12-25T17:41:54.169Z,1.70
2022-12-25T17:44:21.602Z,2.20
2022-12-25T17:46:49.005Z,1.40
2022-12-25T17:49:18.264Z,2.67
2022-12-25T17:51:46.335Z,2.10
2022-12-25T17:54:13.688Z,2.67
2022-12-25T17:56:41.140Z,1.77
2022-12-25T17:59:10.648Z,2.75
2022-12-25T18:01:39.326Z,2.63
2022-12-25T18:04:07.411Z,2.25
2022-12-25T18:06:35.611Z,2.53
2022-12-25T18:09:03.249Z,2.17
2022-12-25T18:11:34.089Z,3.03
2022-12-25T18:14:05.473Z,2.60
2022-12-25T18:16:34.493Z,2.78
2022-12-25T18:19:02.089Z,2.90
2022-12-25T18:21:29.930Z,1.98
2022-12-25T18:23:57.484Z,4.32
2022-12-25T18:26:26.153Z,4.97
2022-12-25T18:28:53.784Z,3.25
2022-12-25T18:31:23.527Z,3.20
2022-12-25T18:33:51.625Z,4.90
2022-12-25T18:36:23.338Z,4.22
2022-12-25T18:38:51.543Z,3.78
2022-12-25T18:41:19.664Z,4.20
2022-12-25T18:43:52.569Z,3.43
2022-12-25T18:46:24.556Z,3.80
2022-12-25T18:48:52.864Z,4.10
2022-12-25T18:51:20.226Z,5.07
2022-12-25T18:53:47.649Z,3.70
2022-12-25T18:56:15.996Z,4.25
2022-12-25T18:58:43.827Z,3.42
2022-12-25T19:01:21.980Z,4.35
2022-12-25T19:03:50.005Z,4.65
2022-12-25T19:06:18.448Z,4.35
2022-12-25T19:08:45.994Z,3.42
2022-12-25T19:11:13.667Z,4.15
2022-12-25T19:13:41.093Z,3.03
2022-12-25T19:16:08.535Z,4.85
2022-12-25T19:18:36.102Z,3.85
2022-12-25T19:21:04.670Z,4.80
2022-12-25T19:23:32.274Z,3.67
2022-12-25T19:25:59.661Z,5.55
2022-12-25T19:28:27.190Z,2.15
2022-12-25T19:30:54.861Z,4.22
2022-12-25T19:33:22.944Z,3.72
2022-12-25T19:35:50.827Z,3.47
2022-12-25T19:38:20.301Z,3.67
2022-12-25T19:41:00.820Z,2.72
2022-12-25T19:43:32.651Z,3.30
2022-12-25T19:46:00.447Z,4.60
2022-12-25T19:48:28.477Z,3.33
2022-12-25T19:50:55.892Z,5.30
2022-12-25T19:53:23.943Z,4.13
2022-12-25T19:55:54.905Z,4.50
2022-12-25T19:58:23.391Z,5.10
2022-12-25T20:01:01.492Z,3.45
2022-12-25T20:03:29.127Z,3.10
2022-12-25T20:05:56.715Z,3.33
2022-12-25T20:08:24.221Z,5.35
2022-12-25T20:10:51.706Z,5.45
2022-12-25T20:13:19.147Z,3.72
2022-12-25T20:15:46.811Z,4.82
2022-12-25T20:18:14.216Z,2.65
2022-12-25T20:20:42.878Z,4.93
2022-12-25T20:23:10.699Z,5.07
2022-12-25T20:25:42.200Z,5.40
2022-12-25T20:28:09.894Z,5.60
2022-12-25T20:30:40.750Z,6.32
2022-12-25T20:33:08.182Z,5.53
2022-12-25T20:35:35.728Z,5.18
2022-12-25T20:38:03.497Z,4.55
2022-12-25T20:41:25.017Z,5.38
2022-12-25T20:43:43.270Z,5.43
2022-12-25T20:46:13.309Z,4.60
2022-12-25T20:48:41.191Z,5.67
2022-12-25T20:51:14.223Z,6.60
2022-12-25T20:53:41.899Z,6.57
2022-12-25T20:56:11.062Z,7.70
2022-12-25T20:58:38.604Z,7.00
2022-12-25T21:01:11.590Z,5.13
2022-12-25T21:03:39.512Z,6.85
2022-12-25T21:06:07.680Z,5.03
2022-12-25T21:08:35.173Z,3.67
2022-12-25T21:11:02.867Z,5.95
2022-12-25T21:13:31.192Z,7.20
2022-12-25T21:15:58.970Z,5.95
2022-12-25T21:18:27.190Z,4.75
2022-12-25T21:20:56.007Z,6.53
2022-12-25T21:23:23.842Z,5.00
2022-12-25T21:25:51.723Z,6.40
2022-12-25T21:28:19.098Z,6.68
2022-12-25T21:30:46.527Z,4.50
2022-12-25T21:33:33.099Z,4.97
2022-12-25T21:36:07.825Z,5.43
2022-12-25T21:38:35.758Z,4.35
2022-12-25T21:41:07.040Z,6.15
2022-12-25T21:43:35.388Z,4.00
2022-12-25T21:46:07.235Z,3.60
2022-12-25T21:48:35.496Z,2.97
2022-12-25T21:51:25.784Z,4.63
2022-12-25T21:53:53.266Z,5.05
2022-12-25T21:56:20.695Z,5.75
2022-12-25T21:58:48.156Z,4.65
2022-12-25T22:01:16.943Z,7.97
2022-12-25T22:03:44.842Z,4.15
2022-12-25T22:06:31.684Z,4.55
2022-12-25T22:08:59.144Z,3.55
2022-12-25T22:11:45.567Z,4.70
2022-12-25T22:14:52.778Z,4.10
2022-12-25T22:17:51.417Z,3.70
2022-12-25T22:20:28.566Z,2.92
2022-12-25T22:22:56.011Z,2.67
2022-12-25T22:25:26.034Z,3.70
2022-12-25T22:27:53.707Z,4.68
2022-12-25T22:30:22.210Z,3.08
2022-12-25T22:32:49.926Z,4.00
2022-12-25T22:35:17.525Z,3.60
2022-12-25T22:37:45.555Z,2.58
2022-12-25T22:40:16.280Z,3.08
2022-12-25T22:42:43.711Z,2.28
2022-12-25T22:45:11.891Z,3.03
2022-12-25T22:47:39.304Z,3.10
2022-12-25T22:50:07.050Z,1.73
2022-12-25T22:52:34.506Z,1.17
2022-12-25T22:55:02.689Z,2.90
2022-12-25T22:57:30.112Z,1.87
2022-12-25T22:59:57.610Z,2.78
2022-12-25T23:02:25.333Z,1.67
2022-12-25T23:04:52.891Z,2.17
2022-12-25T23:07:20.415Z,2.47
2022-12-25T23:09:47.870Z,2.88
2022-12-25T23:12:34.063Z,2.00
2022-12-25T23:15:01.410Z,1.67
2022-12-25T23:17:47.389Z,2.30
2022-12-25T23:20:34.118Z,2.45
2022-12-25T23:23:20.137Z,1.90
2022-12-25T23:26:06.329Z,1.45
2022-12-25T23:28:52.716Z,1.05
2022-12-25T23:31:21.430Z,0.77
2022-12-25T23:33:48.931Z,0.95
2022-12-25T23:36:16.293Z,1.15
2022-12-25T23:38:43.823Z,1.88
2022-12-25T23:41:11.316Z,2.30
2022-12-25T23:43:38.725Z,1.42
2022-12-25T23:46:06.239Z,1.42
2022-12-25T23:48:33.591Z,1.20
2022-12-25T23:51:05.026Z,1.77
2022-12-25T23:53:32.669Z,1.92
2022-12-25T23:56:00.620Z,2.25
2022-12-25T23:58:29.003Z,0.80
